createdAt,value
2018-07-26T00:00:15.296Z,21.85
2018-07-26T00:01:22.194Z,21.52
2018-07-26T00:02:28.343Z,21.45
2018-07-26T00:03:34.316Z,21.60
2018-07-26T00:04:40.300Z,21.81
2018-07-26T00:05:45.983Z,21.88
2018-07-26T00:06:52.020Z,21.67
2018-07-26T00:07:58.044Z,21.63
2018-07-26T00:09:03.894Z,21.69
2018-07-26T00:10:09.928Z,21.50
2018-07-26T00:11:15.623Z,21.54
2018-07-26T00:12:22.444Z,21.59
2018-07-26T00:13:30.907Z,21.63
2018-07-26T00:14:36.871Z,21.54
2018-07-26T00:15:42.698Z,21.43
2018-07-26T00:16:49.587Z,21.48
2018-07-26T00:17:55.878Z,21.53
2018-07-26T00:19:01.986Z,21.66
2018-07-26T00:20:07.656Z,21.78
2018-07-26T00:21:13.688Z,21.74
2018-07-26T00:22:19.449Z,21.48
2018-07-26T00:23:25.535Z,21.31
2018-07-26T00:24:31.623Z,21.44
2018-07-26T00:25:37.576Z,21.73
2018-07-26T00:26:43.620Z,22.08
2018-07-26T00:27:49.873Z,22.14
2018-07-26T00:28:55.939Z,21.93
2018-07-26T00:30:02.013Z,21.70
2018-07-26T00:31:08.127Z,21.63
2018-07-26T00:32:14.213Z,21.64
2018-07-26T00:33:20.360Z,21.62
2018-07-26T00:34:26.339Z,21.55
2018-07-26T00:35:32.436Z,21.45
2018-07-26T00:36:38.478Z,21.36
2018-07-26T00:37:45.024Z,21.45
2018-07-26T00:38:51.214Z,21.73
2018-07-26T00:39:57.311Z,22.05
2018-07-26T00:41:03.395Z,21.73
2018-07-26T00:42:09.239Z,21.10
2018-07-26T00:43:15.244Z,20.85
2018-07-26T00:44:21.347Z,21.00
2018-07-26T00:45:27.411Z,21.31
2018-07-26T00:46:33.521Z,21.33
2018-07-26T00:47:39.644Z,21.31
2018-07-26T00:48:45.441Z,21.28
2018-07-26T00:49:51.376Z,21.24
2018-07-26T00:50:57.416Z,21.01
2018-07-26T00:52:03.207Z,20.90
2018-07-26T00:53:08.987Z,20.71
2018-07-26T00:54:15.793Z,20.64
2018-07-26T00:55:27.339Z,20.82
2018-07-26T00:56:33.410Z,20.91
2018-07-26T00:57:39.454Z,21.00
2018-07-26T00:58:45.535Z,21.08
2018-07-26T00:59:51.566Z,21.12
2018-07-26T01:00:57.515Z,21.09
2018-07-26T01:02:03.670Z,20.97
2018-07-26T01:03:09.767Z,20.62
2018-07-26T01:04:15.761Z,20.72
2018-07-26T01:05:21.868Z,20.82
2018-07-26T01:06:27.888Z,20.87
2018-07-26T01:07:33.981Z,20.90
2018-07-26T01:08:40.090Z,20.89
2018-07-26T01:09:46.108Z,20.84
2018-07-26T01:10:52.226Z,20.78
2018-07-26T01:11:58.211Z,20.84
2018-07-26T01:13:04.385Z,20.87
2018-07-26T01:14:10.531Z,20.93
2018-07-26T01:15:16.292Z,20.92
2018-07-26T01:16:21.944Z,20.93
2018-07-26T01:17:28.132Z,20.65
2018-07-26T01:18:33.824Z,20.39
2018-07-26T01:19:39.776Z,20.48
2018-07-26T01:20:45.487Z,20.96
2018-07-26T01:21:51.512Z,21.22
2018-07-26T01:22:57.653Z,20.84
2018-07-26T01:24:03.668Z,20.52
2018-07-26T01:25:09.749Z,20.53
2018-07-26T01:26:15.880Z,20.50
2018-07-26T01:27:21.944Z,20.31
2018-07-26T01:28:27.953Z,20.39
2018-07-26T01:29:34.983Z,20.56
2018-07-26T01:30:41.256Z,20.63
2018-07-26T01:31:47.909Z,20.69
2018-07-26T01:32:54.049Z,20.70
2018-07-26T01:34:00.055Z,20.71
2018-07-26T01:35:06.036Z,20.69
2018-07-26T01:36:12.144Z,20.55
2018-07-26T01:37:17.960Z,20.58
2018-07-26T01:38:23.935Z,20.63
2018-07-26T01:39:30.088Z,20.61
2018-07-26T01:40:36.180Z,20.61
2018-07-26T01:41:42.316Z,20.58
2018-07-26T01:42:47.711Z,20.59
2018-07-26T01:43:53.423Z,20.62
2018-07-26T01:44:59.565Z,20.61
2018-07-26T01:46:05.430Z,20.72
2018-07-26T01:47:10.798Z,20.82
2018-07-26T01:48:16.760Z,20.78
2018-07-26T01:49:22.896Z,20.76
2018-07-26T01:50:29.604Z,20.71
2018-07-26T01:51:35.725Z,20.66
2018-07-26T01:52:41.696Z,20.46
2018-07-26T01:53:47.843Z,20.46
2018-07-26T01:54:53.884Z,20.49
2018-07-26T01:56:00.029Z,20.56
2018-07-26T01:57:05.852Z,20.50
2018-07-26T01:58:11.860Z,20.32
2018-07-26T01:59:17.869Z,20.31
2018-07-26T02:00:23.969Z,20.10
2018-07-26T02:01:29.732Z,20.17
2018-07-26T02:02:35.770Z,20.19
2018-07-26T02:03:41.579Z,20.22
2018-07-26T02:04:47.683Z,20.26
2018-07-26T02:05:54.604Z,20.29
2018-07-26T02:07:00.926Z,20.28
2018-07-26T02:08:06.908Z,20.28
2018-07-26T02:09:12.928Z,20.30
2018-07-26T02:10:19.021Z,20.29
2018-07-26T02:11:24.460Z,20.29
2018-07-26T02:12:30.611Z,20.29
2018-07-26T02:13:36.771Z,20.24
2018-07-26T02:14:42.537Z,20.27
2018-07-26T02:15:48.550Z,20.24
2018-07-26T02:16:54.376Z,20.27
2018-07-26T02:17:59.945Z,20.34
2018-07-26T02:19:05.927Z,20.36
2018-07-26T02:20:11.995Z,20.32
2018-07-26T02:21:17.954Z,20.27
2018-07-26T02:22:23.682Z,20.32
2018-07-26T02:23:34.708Z,20.34
2018-07-26T02:24:40.784Z,20.25
2018-07-26T02:25:46.815Z,20.24
2018-07-26T02:26:52.544Z,20.23
2018-07-26T02:27:58.560Z,20.24
2018-07-26T02:29:04.583Z,20.20
2018-07-26T02:30:10.720Z,20.18
2018-07-26T02:31:16.717Z,20.18
2018-07-26T02:32:22.733Z,20.08
2018-07-26T02:33:28.742Z,20.04
2018-07-26T02:34:34.865Z,20.02
2018-07-26T02:35:41.012Z,20.00
2018-07-26T02:36:47.210Z,19.85
2018-07-26T02:37:53.416Z,19.77
2018-07-26T02:38:59.464Z,19.95
2018-07-26T02:40:05.272Z,20.06
2018-07-26T02:41:11.362Z,20.02
2018-07-26T02:42:18.386Z,20.00
2018-07-26T02:43:24.709Z,20.01
2018-07-26T02:44:30.708Z,19.85
2018-07-26T02:45:36.895Z,19.94
2018-07-26T02:46:42.902Z,19.88
2018-07-26T02:47:49.035Z,19.89
2018-07-26T02:48:55.124Z,19.87
2018-07-26T02:50:01.257Z,19.84
2018-07-26T02:51:07.014Z,19.62
2018-07-26T02:52:13.049Z,19.62
2018-07-26T02:53:19.087Z,19.66
2018-07-26T02:54:25.200Z,19.72
2018-07-26T02:55:31.184Z,19.86
2018-07-26T02:56:36.910Z,19.87
2018-07-26T02:57:43.275Z,19.79
2018-07-26T02:58:49.403Z,19.78
2018-07-26T02:59:55.515Z,19.69
2018-07-26T03:01:01.645Z,19.63
2018-07-26T03:02:07.420Z,19.67
2018-07-26T03:03:13.854Z,19.68
2018-07-26T03:04:19.830Z,19.71
2018-07-26T03:05:26.556Z,19.77
2018-07-26T03:06:32.561Z,19.79
2018-07-26T03:07:38.541Z,19.79
2018-07-26T03:08:44.547Z,19.78
2018-07-26T03:09:50.703Z,19.79
2018-07-26T03:10:56.788Z,19.79
2018-07-26T03:12:02.571Z,19.79
2018-07-26T03:13:07.856Z,19.80
2018-07-26T03:14:13.505Z,19.80
2018-07-26T03:15:19.126Z,19.83
2018-07-26T03:16:24.796Z,19.82
2018-07-26T03:17:30.870Z,19.87
2018-07-26T03:18:37.826Z,19.81
2018-07-26T03:19:44.116Z,19.91
2018-07-26T03:20:50.203Z,19.86
2018-07-26T03:21:56.524Z,19.85
2018-07-26T03:23:03.118Z,19.87
2018-07-26T03:24:09.258Z,19.88
2018-07-26T03:25:15.333Z,19.77
2018-07-26T03:26:21.496Z,19.71
2018-07-26T03:27:27.569Z,19.67
2018-07-26T03:28:33.688Z,19.67
2018-07-26T03:29:39.815Z,19.68
2018-07-26T03:30:45.930Z,19.72
2018-07-26T03:31:51.980Z,19.72
2018-07-26T03:32:58.017Z,19.65
2018-07-26T03:34:03.659Z,19.56
2018-07-26T03:35:09.707Z,19.57
2018-07-26T03:36:15.928Z,19.57
2018-07-26T03:37:22.032Z,19.61
2018-07-26T03:38:27.766Z,19.61
2018-07-26T03:39:34.662Z,19.56
2018-07-26T03:40:40.611Z,19.57
2018-07-26T03:41:46.789Z,19.58
2018-07-26T03:42:52.956Z,19.57
2018-07-26T03:43:59.063Z,19.57
2018-07-26T03:45:04.516Z,19.59
2018-07-26T03:46:10.766Z,19.61
2018-07-26T03:47:16.865Z,19.66
2018-07-26T03:48:22.966Z,19.66
2018-07-26T03:49:29.096Z,19.67
2018-07-26T03:50:34.887Z,19.72
2018-07-26T03:51:40.888Z,19.74
2018-07-26T03:52:47.072Z,19.75
2018-07-26T03:53:53.356Z,19.75
2018-07-26T03:54:59.455Z,19.75
2018-07-26T03:56:05.320Z,19.76
2018-07-26T03:57:11.304Z,19.79
2018-07-26T03:58:17.127Z,19.86
2018-07-26T03:59:22.852Z,19.95
2018-07-26T04:00:28.844Z,19.97
2018-07-26T04:01:34.977Z,20.08
2018-07-26T04:02:40.994Z,20.07
2018-07-26T04:03:46.976Z,20.02
2018-07-26T04:04:52.982Z,20.01
2018-07-26T04:05:59.224Z,19.95
2018-07-26T04:07:05.954Z,19.88
2018-07-26T04:08:11.985Z,19.77
2018-07-26T04:09:18.188Z,19.84
2018-07-26T04:10:24.363Z,19.93
2018-07-26T04:11:32.084Z,19.98
2018-07-26T04:12:38.600Z,20.03
2018-07-26T04:13:44.572Z,20.02
2018-07-26T04:14:50.217Z,20.01
2018-07-26T04:15:56.827Z,20.00
2018-07-26T04:17:02.565Z,20.00
2018-07-26T04:18:08.589Z,20.03
2018-07-26T04:19:14.719Z,20.05
2018-07-26T04:20:20.823Z,20.05
2018-07-26T04:21:26.884Z,20.10
2018-07-26T04:22:33.055Z,20.14
2018-07-26T04:23:39.131Z,20.15
2018-07-26T04:24:45.965Z,20.24
2018-07-26T04:25:52.503Z,20.28
2018-07-26T04:26:58.487Z,20.24
2018-07-26T04:28:04.607Z,20.26
2018-07-26T04:29:10.451Z,20.32
2018-07-26T04:30:16.600Z,20.33
2018-07-26T04:31:23.685Z,20.32
2018-07-26T04:32:29.982Z,20.31
2018-07-26T04:33:36.603Z,20.33
2018-07-26T04:34:42.572Z,20.34
2018-07-26T04:35:49.486Z,20.36
2018-07-26T04:36:55.636Z,20.38
2018-07-26T04:38:01.692Z,20.43
2018-07-26T04:39:07.127Z,20.46
2018-07-26T04:40:13.117Z,20.48
2018-07-26T04:41:19.154Z,20.49
2018-07-26T04:42:25.341Z,20.49
2018-07-26T04:43:31.324Z,20.50
2018-07-26T04:44:37.336Z,20.53
2018-07-26T04:45:43.325Z,20.53
2018-07-26T04:46:49.469Z,20.64
2018-07-26T04:47:55.573Z,20.74
2018-07-26T04:49:01.774Z,20.74
2018-07-26T04:50:07.986Z,20.79
2018-07-26T04:51:13.711Z,20.80
2018-07-26T04:52:22.251Z,20.81
2018-07-26T04:53:28.512Z,20.86
2018-07-26T04:54:34.608Z,20.92
2018-07-26T04:55:40.885Z,20.97
2018-07-26T04:56:47.004Z,21.00
2018-07-26T04:57:53.305Z,21.06
2018-07-26T04:58:59.277Z,21.13
2018-07-26T05:00:04.997Z,21.18
2018-07-26T05:01:10.792Z,21.24
2018-07-26T05:02:16.606Z,21.31
2018-07-26T05:03:22.709Z,21.35
2018-07-26T05:04:28.946Z,21.50
2018-07-26T05:05:35.114Z,21.56
2018-07-26T05:06:41.654Z,21.61
2018-07-26T05:07:48.819Z,21.61
2018-07-26T05:08:55.116Z,21.64
2018-07-26T05:10:00.835Z,21.67
2018-07-26T05:11:06.888Z,21.70
2018-07-26T05:12:13.542Z,21.74
2018-07-26T05:13:19.960Z,21.75
2018-07-26T05:14:25.944Z,21.79
2018-07-26T05:15:32.410Z,21.81
2018-07-26T05:16:38.320Z,21.84
2018-07-26T05:17:43.981Z,21.89
2018-07-26T05:18:50.040Z,21.94
2018-07-26T05:19:56.174Z,22.00
2018-07-26T05:21:02.276Z,22.04
2018-07-26T05:22:08.402Z,22.09
2018-07-26T05:23:14.579Z,22.12
2018-07-26T05:24:20.689Z,22.16
2018-07-26T05:25:26.815Z,22.25
2018-07-26T05:26:32.823Z,22.32
2018-07-26T05:27:38.925Z,22.37
2018-07-26T05:28:45.225Z,22.42
2018-07-26T05:29:51.916Z,22.48
2018-07-26T05:30:58.063Z,22.54
2018-07-26T05:32:04.449Z,22.62
2018-07-26T05:33:10.087Z,22.67
2018-07-26T05:34:16.081Z,22.76
2018-07-26T05:35:22.616Z,22.81
2018-07-26T05:36:28.715Z,22.88
2018-07-26T05:37:34.918Z,23.03
2018-07-26T05:38:41.230Z,23.07
2018-07-26T05:39:47.224Z,23.13
2018-07-26T05:40:53.221Z,23.20
2018-07-26T05:41:59.933Z,23.22
2018-07-26T05:43:06.011Z,23.26
2018-07-26T05:44:13.380Z,23.35
2018-07-26T05:45:19.629Z,23.38
2018-07-26T05:46:25.328Z,23.43
2018-07-26T05:47:32.020Z,23.48
2018-07-26T05:48:38.004Z,23.49
2018-07-26T05:49:44.103Z,23.69
2018-07-26T05:50:50.269Z,23.82
2018-07-26T05:51:56.584Z,23.74
2018-07-26T05:53:02.680Z,23.79
2018-07-26T05:54:08.741Z,23.95
2018-07-26T05:55:14.777Z,24.08
2018-07-26T05:56:20.918Z,24.11
2018-07-26T05:57:27.531Z,24.08
2018-07-26T05:58:33.850Z,23.99
2018-07-26T05:59:39.707Z,24.01
2018-07-26T06:00:46.492Z,24.13
2018-07-26T06:01:52.644Z,24.24
2018-07-26T06:02:58.756Z,24.46
2018-07-26T06:04:04.439Z,24.42
2018-07-26T06:05:09.860Z,24.40
2018-07-26T06:06:15.823Z,24.43
2018-07-26T06:07:21.861Z,24.49
2018-07-26T06:08:27.894Z,24.53
2018-07-26T06:09:33.887Z,24.63
2018-07-26T06:10:39.701Z,24.70
2018-07-26T06:11:45.285Z,24.88
2018-07-26T06:12:51.080Z,25.09
2018-07-26T06:13:56.620Z,25.07
2018-07-26T06:15:02.382Z,25.07
2018-07-26T06:16:07.514Z,25.22
2018-07-26T06:17:13.053Z,25.32
2018-07-26T06:18:18.929Z,25.29
2018-07-26T06:19:25.016Z,25.51
2018-07-26T06:20:31.489Z,25.57
2018-07-26T06:21:38.454Z,25.56
2018-07-26T06:22:44.496Z,25.67
2018-07-26T06:23:50.280Z,25.66
2018-07-26T06:24:56.092Z,25.73
2018-07-26T06:26:01.780Z,25.77
2018-07-26T06:27:07.140Z,25.72
2018-07-26T06:28:12.958Z,25.81
2018-07-26T06:29:18.881Z,25.88
2018-07-26T06:30:24.679Z,25.78
2018-07-26T06:31:30.483Z,25.81
2018-07-26T06:32:36.316Z,25.91
2018-07-26T06:33:42.011Z,26.02
2018-07-26T06:34:47.921Z,25.96
2018-07-26T06:35:53.789Z,26.00
2018-07-26T06:36:59.615Z,25.82
2018-07-26T06:38:04.953Z,25.87
2018-07-26T06:39:10.304Z,25.86
2018-07-26T06:40:15.279Z,25.82
2018-07-26T06:41:21.895Z,25.83
2018-07-26T06:42:27.964Z,25.82
2018-07-26T06:43:33.668Z,25.93
2018-07-26T06:44:39.480Z,26.28
2018-07-26T06:45:44.933Z,26.09
2018-07-26T06:46:50.339Z,26.15
2018-07-26T06:47:56.206Z,26.25
2018-07-26T06:49:02.031Z,26.21
2018-07-26T06:50:07.494Z,25.95
2018-07-26T06:51:12.895Z,26.15
2018-07-26T06:52:19.318Z,26.22
2018-07-26T06:53:25.188Z,26.43
2018-07-26T06:54:31.051Z,26.43
2018-07-26T06:55:36.865Z,26.58
2018-07-26T06:56:42.760Z,26.62
2018-07-26T06:57:48.829Z,26.53
2018-07-26T06:58:54.562Z,26.60
2018-07-26T07:00:00.259Z,26.83
2018-07-26T07:01:05.392Z,26.64
2018-07-26T07:02:11.549Z,26.37
2018-07-26T07:03:16.924Z,26.41
2018-07-26T07:04:22.786Z,26.50
2018-07-26T07:05:28.552Z,26.67
2018-07-26T07:06:34.307Z,26.37
2018-07-26T07:07:40.077Z,26.67
2018-07-26T07:08:45.807Z,26.84
2018-07-26T07:09:51.627Z,26.90
2018-07-26T07:10:57.383Z,26.84
2018-07-26T07:12:03.066Z,26.91
2018-07-26T07:13:08.542Z,26.86
2018-07-26T07:14:14.308Z,27.01
2018-07-26T07:15:20.072Z,27.02
2018-07-26T07:16:25.737Z,26.98
2018-07-26T07:17:31.173Z,27.07
2018-07-26T07:18:36.969Z,27.12
2018-07-26T07:19:42.730Z,26.95
2018-07-26T07:20:48.640Z,26.84
2018-07-26T07:21:54.008Z,26.96
2018-07-26T07:22:59.750Z,27.08
2018-07-26T07:24:05.048Z,27.34
2018-07-26T07:25:11.044Z,27.44
2018-07-26T07:26:16.123Z,27.41
2018-07-26T07:27:21.594Z,27.46
2018-07-26T07:28:27.884Z,27.33
2018-07-26T07:29:33.597Z,27.47
2018-07-26T07:30:39.296Z,27.73
2018-07-26T07:31:44.668Z,27.83
2018-07-26T07:32:50.405Z,27.89
2018-07-26T07:33:55.882Z,27.76
2018-07-26T07:35:01.609Z,27.71
2018-07-26T07:36:07.076Z,27.83
2018-07-26T07:37:12.912Z,27.89
2018-07-26T07:38:18.272Z,27.87
2018-07-26T07:39:24.093Z,28.02
2018-07-26T07:40:29.537Z,28.10
2018-07-26T07:41:35.400Z,28.15
2018-07-26T07:42:41.197Z,28.00
2018-07-26T07:43:47.792Z,27.97
2018-07-26T07:44:53.441Z,28.07
2018-07-26T07:45:59.188Z,28.10
2018-07-26T07:47:04.287Z,28.20
2018-07-26T07:48:09.991Z,28.35
2018-07-26T07:49:15.670Z,27.92
2018-07-26T07:50:21.355Z,28.07
2018-07-26T07:51:27.168Z,28.34
2018-07-26T07:52:33.219Z,28.34
2018-07-26T07:53:38.994Z,28.46
2018-07-26T07:54:44.781Z,28.35
2018-07-26T07:55:50.164Z,28.05
2018-07-26T07:56:56.676Z,28.05
2018-07-26T07:58:02.428Z,27.98
2018-07-26T07:59:08.266Z,28.00
2018-07-26T08:00:14.458Z,28.08
2018-07-26T08:01:20.282Z,28.27
2018-07-26T08:02:25.260Z,28.24
2018-07-26T08:03:31.014Z,28.34
2018-07-26T08:04:36.565Z,28.48
2018-07-26T08:05:41.919Z,28.11
2018-07-26T08:06:47.373Z,28.15
2018-07-26T08:07:53.350Z,28.25
2018-07-26T08:08:59.068Z,28.52
2018-07-26T08:10:04.082Z,28.45
2018-07-26T08:11:10.079Z,28.43
2018-07-26T08:12:15.654Z,28.72
2018-07-26T08:13:21.344Z,28.58
2018-07-26T08:14:27.021Z,28.77
2018-07-26T08:15:32.844Z,28.72
2018-07-26T08:16:38.527Z,28.48
2018-07-26T08:17:44.328Z,28.51
2018-07-26T08:18:50.152Z,28.64
2018-07-26T08:19:57.862Z,28.71
2018-07-26T08:21:04.036Z,28.61
2018-07-26T08:22:09.524Z,28.61
2018-07-26T08:23:15.270Z,28.68
2018-07-26T08:24:20.927Z,28.64
2018-07-26T08:25:26.764Z,28.62
2018-07-26T08:26:32.561Z,28.83
2018-07-26T08:27:38.375Z,29.00
2018-07-26T08:28:44.206Z,28.90
2018-07-26T08:29:50.068Z,28.97
2018-07-26T08:30:55.768Z,28.90
2018-07-26T08:32:01.290Z,28.93
2018-07-26T08:33:06.935Z,28.98
2018-07-26T08:34:12.804Z,28.73
2018-07-26T08:35:18.775Z,28.72
2018-07-26T08:36:24.472Z,28.62
2018-07-26T08:37:30.167Z,28.77
2018-07-26T08:38:35.893Z,28.86
2018-07-26T08:39:41.469Z,28.94
2018-07-26T08:40:48.154Z,29.16
2018-07-26T08:41:54.325Z,29.23
2018-07-26T08:43:00.168Z,29.33
2018-07-26T08:44:05.897Z,29.39
2018-07-26T08:45:11.680Z,29.46
2018-07-26T08:46:17.519Z,29.45
2018-07-26T08:47:23.843Z,29.48
2018-07-26T08:48:29.713Z,29.59
2018-07-26T08:49:35.536Z,29.13
2018-07-26T08:50:41.293Z,28.96
2018-07-26T08:51:47.008Z,28.84
2018-07-26T08:52:52.796Z,28.81
2018-07-26T08:53:58.635Z,29.07
2018-07-26T08:55:03.956Z,29.12
2018-07-26T08:56:09.724Z,29.26
2018-07-26T08:57:15.377Z,29.40
2018-07-26T08:58:21.183Z,29.63
2018-07-26T08:59:27.022Z,29.58
2018-07-26T09:00:32.113Z,29.40
2018-07-26T09:01:38.601Z,29.39
2018-07-26T09:02:44.610Z,29.60
2018-07-26T09:03:50.426Z,29.80
2018-07-26T09:04:56.099Z,30.10
2018-07-26T09:06:01.906Z,29.98
2018-07-26T09:07:07.596Z,29.77
2018-07-26T09:08:13.287Z,29.72
2018-07-26T09:09:18.782Z,29.57
2018-07-26T09:10:24.513Z,29.76
2018-07-26T09:11:29.922Z,29.97
2018-07-26T09:12:35.512Z,30.03
2018-07-26T09:13:41.334Z,29.96
2018-07-26T09:14:47.298Z,29.92
2018-07-26T09:15:52.979Z,29.98
2018-07-26T09:16:58.439Z,30.03
2018-07-26T09:18:03.794Z,30.14
2018-07-26T09:19:09.491Z,30.15
2018-07-26T09:20:15.257Z,30.04
2018-07-26T09:21:21.061Z,30.01
2018-07-26T09:22:27.343Z,30.03
2018-07-26T09:23:33.093Z,30.23
2018-07-26T09:24:38.664Z,30.10
2018-07-26T09:25:44.110Z,30.02
2018-07-26T09:26:49.848Z,30.08
2018-07-26T09:27:55.649Z,30.15
2018-07-26T09:29:01.796Z,30.18
2018-07-26T09:30:07.072Z,30.25
2018-07-26T09:31:12.846Z,29.84
2018-07-26T09:32:18.205Z,29.96
2018-07-26T09:33:23.976Z,30.31
2018-07-26T09:34:30.044Z,30.36
2018-07-26T09:35:35.888Z,30.34
2018-07-26T09:36:41.408Z,30.51
2018-07-26T09:37:47.247Z,30.45
2018-07-26T09:38:53.082Z,30.30
2018-07-26T09:39:58.876Z,29.97
2018-07-26T09:41:04.430Z,30.16
2018-07-26T09:42:10.240Z,30.16
2018-07-26T09:43:15.956Z,30.23
2018-07-26T09:44:21.860Z,30.33
2018-07-26T09:45:28.265Z,30.61
2018-07-26T09:46:35.513Z,30.55
2018-07-26T09:47:41.187Z,30.57
2018-07-26T09:48:46.908Z,30.59
2018-07-26T09:49:52.866Z,30.56
2018-07-26T09:50:58.816Z,30.91
2018-07-26T09:52:04.417Z,30.68
2018-07-26T09:53:10.195Z,30.82
2018-07-26T09:54:15.676Z,30.51
2018-07-26T09:55:21.898Z,30.64
2018-07-26T09:56:27.724Z,30.84
2018-07-26T09:57:34.312Z,30.73
2018-07-26T09:58:42.251Z,30.72
2018-07-26T09:59:48.279Z,30.60
2018-07-26T10:00:53.503Z,30.74
2018-07-26T10:01:59.348Z,30.76
2018-07-26T10:03:04.676Z,30.73
2018-07-26T10:04:10.466Z,30.58
2018-07-26T10:05:16.147Z,30.73
2018-07-26T10:06:21.852Z,30.82
2018-07-26T10:07:27.529Z,30.72
2018-07-26T10:08:33.233Z,30.50
2018-07-26T10:09:39.516Z,30.66
2018-07-26T10:10:45.481Z,30.86
2018-07-26T10:11:51.279Z,30.76
2018-07-26T10:12:57.081Z,30.71
2018-07-26T10:14:02.906Z,30.79
2018-07-26T10:15:08.513Z,30.81
2018-07-26T10:16:14.439Z,30.69
2018-07-26T10:17:20.310Z,30.72
2018-07-26T10:18:26.184Z,31.00
2018-07-26T10:19:32.908Z,31.09
2018-07-26T10:20:38.905Z,31.24
2018-07-26T10:21:44.713Z,31.18
2018-07-26T10:22:50.723Z,31.19
2018-07-26T10:23:56.495Z,30.75
2018-07-26T10:25:02.424Z,31.04
2018-07-26T10:26:08.179Z,31.11
2018-07-26T10:27:20.368Z,31.11
2018-07-26T10:28:26.093Z,31.11
2018-07-26T10:29:32.008Z,31.19
2018-07-26T10:30:37.850Z,30.90
2018-07-26T10:31:43.648Z,31.06
2018-07-26T10:32:49.368Z,30.98
2018-07-26T10:33:55.135Z,30.89
2018-07-26T10:35:00.970Z,31.21
2018-07-26T10:36:08.102Z,31.50
2018-07-26T10:37:13.903Z,31.27
2018-07-26T10:38:19.100Z,31.09
2018-07-26T10:39:24.940Z,31.22
2018-07-26T10:40:30.321Z,31.25
2018-07-26T10:41:36.067Z,31.22
2018-07-26T10:42:41.503Z,31.21
2018-07-26T10:43:47.274Z,31.37
2018-07-26T10:44:53.190Z,31.35
2018-07-26T10:45:58.771Z,31.24
2018-07-26T10:47:04.070Z,31.26
2018-07-26T10:48:09.550Z,31.43
2018-07-26T10:49:15.200Z,31.43
2018-07-26T10:50:21.586Z,31.13
2018-07-26T10:51:27.394Z,31.22
2018-07-26T10:52:33.237Z,31.49
2018-07-26T10:53:38.932Z,31.60
2018-07-26T10:54:44.919Z,31.77
2018-07-26T10:55:51.395Z,31.80
2018-07-26T10:56:57.557Z,31.82
2018-07-26T10:58:03.473Z,31.76
2018-07-26T10:59:09.156Z,31.54
2018-07-26T11:00:14.718Z,31.66
2018-07-26T11:01:20.529Z,31.89
2018-07-26T11:02:26.364Z,31.87
2018-07-26T11:03:32.153Z,31.81
2018-07-26T11:04:37.862Z,31.67
2018-07-26T11:05:43.296Z,31.59
2018-07-26T11:06:48.737Z,31.78
2018-07-26T11:07:54.441Z,31.69
2018-07-26T11:09:00.164Z,31.57
2018-07-26T11:10:05.530Z,31.19
2018-07-26T11:11:11.208Z,31.13
2018-07-26T11:12:16.945Z,31.35
2018-07-26T11:13:22.756Z,31.46
2018-07-26T11:14:28.598Z,31.45
2018-07-26T11:15:34.351Z,31.53
2018-07-26T11:16:41.437Z,31.73
2018-07-26T11:17:48.103Z,31.34
2018-07-26T11:18:53.828Z,31.47
2018-07-26T11:20:00.015Z,31.59
2018-07-26T11:21:08.388Z,31.81
2018-07-26T11:22:15.398Z,31.88
2018-07-26T11:23:21.352Z,32.04
2018-07-26T11:24:27.400Z,31.83
2018-07-26T11:25:33.434Z,31.89
2018-07-26T11:26:39.392Z,31.79
2018-07-26T11:27:45.503Z,31.86
2018-07-26T11:28:51.598Z,32.00
2018-07-26T11:29:57.646Z,31.82
2018-07-26T11:31:03.635Z,31.70
2018-07-26T11:32:09.616Z,31.81
2018-07-26T11:33:16.142Z,31.93
2018-07-26T11:34:22.154Z,32.07
2018-07-26T11:35:28.176Z,32.26
2018-07-26T11:36:34.196Z,32.03
2018-07-26T11:37:39.843Z,32.37
2018-07-26T11:38:46.187Z,32.10
2018-07-26T11:39:52.283Z,31.94
2018-07-26T11:40:58.407Z,32.22
2018-07-26T11:42:04.032Z,32.28
2018-07-26T11:43:09.804Z,32.53
2018-07-26T11:44:15.831Z,32.79
2018-07-26T11:45:21.589Z,32.89
2018-07-26T11:46:27.657Z,32.67
2018-07-26T11:47:33.693Z,32.48
2018-07-26T11:48:39.681Z,32.29
2018-07-26T11:49:45.701Z,32.37
2018-07-26T11:50:51.732Z,32.30
2018-07-26T11:51:57.423Z,32.05
2018-07-26T11:53:04.231Z,32.23
2018-07-26T11:54:10.140Z,32.15
2018-07-26T11:55:16.250Z,32.27
2018-07-26T11:56:22.253Z,32.26
2018-07-26T11:57:28.257Z,32.46
2018-07-26T11:58:34.250Z,32.60
2018-07-26T11:59:40.260Z,32.32
2018-07-26T12:00:46.292Z,32.30
2018-07-26T12:01:52.316Z,32.31
2018-07-26T12:02:58.270Z,32.58
2018-07-26T12:04:04.284Z,32.50
2018-07-26T12:05:10.908Z,32.73
2018-07-26T12:06:16.930Z,32.92
2018-07-26T12:07:23.043Z,32.81
2018-07-26T12:08:29.015Z,32.77
2018-07-26T12:09:35.212Z,32.52
2018-07-26T12:10:41.828Z,32.85
2018-07-26T12:11:47.847Z,32.92
2018-07-26T12:12:53.885Z,32.94
2018-07-26T12:13:59.913Z,32.72
2018-07-26T12:15:05.525Z,32.67
2018-07-26T12:16:11.482Z,32.58
2018-07-26T12:17:17.290Z,32.44
2018-07-26T12:18:23.252Z,32.53
2018-07-26T12:19:31.186Z,32.96
2018-07-26T12:20:38.890Z,32.89
2018-07-26T12:21:45.326Z,33.04
2018-07-26T12:22:51.482Z,33.17
2018-07-26T12:23:57.462Z,32.92
2018-07-26T12:25:03.420Z,33.07
2018-07-26T12:26:09.055Z,32.66
2018-07-26T12:27:15.154Z,32.56
2018-07-26T12:28:21.226Z,32.56
2018-07-26T12:29:28.695Z,32.72
2018-07-26T12:30:35.287Z,32.73
2018-07-26T12:31:42.328Z,33.09
2018-07-26T12:32:48.559Z,33.18
2018-07-26T12:33:54.620Z,33.04
2018-07-26T12:35:00.608Z,33.04
2018-07-26T12:36:05.895Z,33.09
2018-07-26T12:37:11.247Z,33.13
2018-07-26T12:38:16.975Z,33.09
2018-07-26T12:39:23.305Z,32.99
2018-07-26T12:40:29.547Z,33.06
2018-07-26T12:41:35.460Z,33.09
2018-07-26T12:42:41.753Z,33.03
2018-07-26T12:43:47.520Z,32.76
2018-07-26T12:44:53.656Z,33.07
2018-07-26T12:46:00.811Z,33.23
2018-07-26T12:47:06.776Z,33.05
2018-07-26T12:48:12.808Z,33.21
2018-07-26T12:49:18.774Z,33.23
2018-07-26T12:50:24.778Z,33.35
2018-07-26T12:51:30.481Z,33.34
2018-07-26T12:52:36.591Z,33.27
2018-07-26T12:53:42.597Z,33.24
2018-07-26T12:54:48.628Z,33.32
2018-07-26T12:55:55.056Z,33.51
2018-07-26T12:57:01.024Z,33.45
2018-07-26T12:58:07.444Z,33.57
2018-07-26T12:59:13.452Z,33.28
2018-07-26T13:00:19.066Z,32.93
2018-07-26T13:01:25.189Z,32.94
2018-07-26T13:02:31.987Z,33.01
2018-07-26T13:03:38.257Z,33.05
2018-07-26T13:04:44.171Z,33.42
2018-07-26T13:05:51.097Z,33.27
2018-07-26T13:06:56.525Z,33.39
2018-07-26T13:08:02.627Z,32.92
2018-07-26T13:09:07.788Z,32.77
2018-07-26T13:10:13.827Z,33.00
2018-07-26T13:11:19.903Z,33.13
2018-07-26T13:12:29.343Z,33.04
2018-07-26T13:13:38.085Z,33.34
2018-07-26T13:14:45.108Z,33.60
2018-07-26T13:15:51.275Z,33.42
2018-07-26T13:16:57.288Z,33.55
2018-07-26T13:18:03.334Z,33.44
2018-07-26T13:19:08.965Z,32.87
2018-07-26T13:20:15.058Z,32.79
2018-07-26T13:21:22.177Z,32.81
2018-07-26T13:22:28.182Z,33.30
2018-07-26T13:23:34.137Z,33.42
2018-07-26T13:24:40.128Z,33.25
2018-07-26T13:25:46.157Z,33.36
2018-07-26T13:26:52.182Z,33.45
2018-07-26T13:27:58.157Z,33.44
2018-07-26T13:29:04.164Z,33.28
2018-07-26T13:30:10.220Z,33.37
2018-07-26T13:31:16.203Z,33.78
2018-07-26T13:32:22.176Z,33.83
2018-07-26T13:33:28.311Z,33.64
2018-07-26T13:34:34.292Z,33.54
2018-07-26T13:35:40.248Z,33.19
2018-07-26T13:36:46.020Z,33.30
2018-07-26T13:37:52.085Z,33.24
2018-07-26T13:38:58.112Z,33.56
2018-07-26T13:40:03.788Z,33.52
2018-07-26T13:41:09.949Z,33.45
2018-07-26T13:42:15.947Z,33.52
2018-07-26T13:43:21.974Z,33.24
2018-07-26T13:44:27.957Z,33.22
2018-07-26T13:45:34.070Z,33.26
2018-07-26T13:46:40.069Z,33.15
2018-07-26T13:47:46.043Z,33.25
2018-07-26T13:48:52.093Z,33.42
2018-07-26T13:49:58.094Z,33.43
2018-07-26T13:51:04.051Z,33.33
2018-07-26T13:52:10.200Z,33.24
2018-07-26T13:53:16.217Z,33.24
2018-07-26T13:54:22.163Z,33.35
2018-07-26T13:55:28.281Z,33.05
2018-07-26T13:56:33.898Z,33.22
2018-07-26T13:57:40.796Z,33.55
2018-07-26T13:58:47.419Z,33.18
2018-07-26T13:59:53.566Z,33.18
2018-07-26T14:00:59.765Z,33.40
2018-07-26T14:02:06.494Z,33.51
2018-07-26T14:03:13.979Z,33.39
2018-07-26T14:04:20.446Z,33.65
2018-07-26T14:05:27.372Z,33.55
2018-07-26T14:06:35.040Z,33.59
2018-07-26T14:07:41.640Z,33.61
2018-07-26T14:08:48.487Z,33.61
2018-07-26T14:09:55.459Z,33.32